• Join FlightAware (Why Join?)
  • Login
  • US Flag 
05:52PM EST


 

Airport Tracker/Info


-or-


 

Live Flight TrackerFlight Track Log ✈ SAS874 ✈ 01-May-2012 ✈ ENGM / OSL - ESSA / ARN

Flight Track Log - Related Links

Times and Time Zones

All times are in EDT time to prevent confusion due to time zone crossing. See the SAS874 flight status page for this flight to view local times or setup timezone preferences in your user account.

Time Position Orientation Groundspeed Altitude Reporting Facility
EDT Latitude Longitude Course Direction KTS MPH feet Rate Location/Type
08:18AM 60.1909 11.1580 96° East  Level Estimated
08:19AM 60.1784 11.3883 96° East  Level Estimated
08:20AM 60.1656 11.6184 96° East  Level Estimated
08:21AM 60.1524 11.8483 97° East  Level Estimated
08:22AM 60.1387 12.0781 97° East  Level Estimated
08:23AM 60.1247 12.3076 97° East  Level Estimated
08:24AM 60.1102 12.5370 97° East  Level Estimated
08:25AM 60.0954 12.7662 97° East  Level Estimated
08:26AM 60.0802 12.9951 98° East  Level Estimated
08:27AM 60.0646 13.2238 98° East  Level Estimated
08:28AM 60.0486 13.4523 98° East  Level Estimated
08:29AM 60.0322 13.6806 98° East  Level Estimated
08:30AM 60.0154 13.9087 98° East  Level Estimated
08:31AM 59.9982 14.1365 99° East  Level Estimated
08:32AM 59.9806 14.3641 99° East  Level Estimated
08:33AM 59.9626 14.5914 99° East  Level Estimated
08:34AM 59.9442 14.8185 99° East  Level Estimated
08:35AM 59.9255 15.0454 99° East  Level Estimated
08:36AM 59.9063 15.2720 100° East  Level Estimated
08:37AM 59.8868 15.4983 100° East  Level Estimated
08:38AM 59.8669 15.7243 100° East  Level Estimated
08:39AM 59.8466 15.9501 100° East  Level Estimated
08:40AM 59.8259 16.1756 100° East  Level Estimated
08:41AM 59.8048 16.4008 101° East  Level Estimated
08:42AM 59.7834 16.6257 101° East  Level Estimated
08:43AM 59.7615 16.8504 101° East  Level Estimated
08:44AM 59.7393 17.0747 101° East  Level Estimated
08:45AM 59.7167 17.2987 101° East  Level Estimated
08:46AM 59.6937 17.5225 102° East  Level Estimated
08:47AM 59.6703 17.7459 102° East  Level Estimated
08:48AM 59.6465 17.9690 282° West  Level Estimated
08:49AM 59.6703 17.7459 102° East  Level Estimated
08:50AM 59.6465 17.9690 282° West  Level Estimated
08:51AM 59.6703 17.7459 102° East  Level Estimated
08:52AM 59.6465 17.9690 282° West  Level Estimated
08:53AM 59.6703 17.7459 102° East  Level Estimated
08:54AM 59.6465 17.9690 282° West  Level Estimated
08:55AM 59.6703 17.7459 102° East  Level Estimated
08:56AM 59.6465 17.9690 282° West  Level Estimated
08:57AM 59.6703 17.7459 102° East  Level Estimated
08:58AM 59.6465 17.9690 282° West  Level Estimated
08:59AM 59.6703 17.7459 102° East  Level Estimated
09:00AM 59.6465 17.9690 102° East  Level Estimated